sensor_id;sensor_type;location;lat;lon;timestamp;P1;durP1;ratioP1;P2;durP2;ratioP2
22673;SDS011;11504;43.334;21.918;2022-10-31T00:02:49;36.0;;;34.0;;
22673;SDS011;11504;43.334;21.918;2022-10-31T00:07:25;36.0;;;34.0;;
22673;SDS011;11504;43.334;21.918;2022-10-31T00:12:02;35.0;;;33.0;;
22673;SDS011;11504;43.334;21.918;2022-10-31T00:16:40;35.0;;;33.0;;
22673;SDS011;11504;43.334;21.918;2022-10-31T00:21:17;35.0;;;33.0;;
22673;SDS011;11504;43.334;21.918;2022-10-31T00:26:00;34.0;;;33.0;;
22673;SDS011;11504;43.334;21.918;2022-10-31T00:30:40;34.0;;;33.0;;
22673;SDS011;11504;43.334;21.918;2022-10-31T00:35:17;34.0;;;33.0;;
22673;SDS011;11504;43.334;21.918;2022-10-31T00:39:54;34.0;;;33.0;;
22673;SDS011;11504;43.334;21.918;2022-10-31T00:44:30;32.0;;;30.0;;
22673;SDS011;11504;43.334;21.918;2022-10-31T00:49:07;32.0;;;30.0;;
22673;SDS011;11504;43.334;21.918;2022-10-31T00:53:44;29.0;;;27.0;;
22673;SDS011;11504;43.334;21.918;2022-10-31T00:58:20;29.0;;;27.0;;
22673;SDS011;11504;43.334;21.918;2022-10-31T01:02:58;30.0;;;28.0;;
22673;SDS011;11504;43.334;21.918;2022-10-31T01:07:35;30.0;;;28.0;;
22673;SDS011;11504;43.334;21.918;2022-10-31T01:12:16;30.0;;;28.0;;
22673;SDS011;11504;43.334;21.918;2022-10-31T01:16:53;30.0;;;28.0;;
22673;SDS011;11504;43.334;21.918;2022-10-31T01:21:30;30.0;;;28.0;;
22673;SDS011;11504;43.334;21.918;2022-10-31T01:26:10;31.0;;;30.0;;
22673;SDS011;11504;43.334;21.918;2022-10-31T01:30:59;31.0;;;30.0;;
22673;SDS011;11504;43.334;21.918;2022-10-31T01:35:44;32.0;;;31.0;;
22673;SDS011;11504;43.334;21.918;2022-10-31T01:40:21;32.0;;;31.0;;
22673;SDS011;11504;43.334;21.918;2022-10-31T01:44:59;32.0;;;30.0;;
22673;SDS011;11504;43.334;21.918;2022-10-31T01:49:46;32.0;;;30.0;;
22673;SDS011;11504;43.334;21.918;2022-10-31T01:54:42;32.0;;;30.0;;
22673;SDS011;11504;43.334;21.918;2022-10-31T01:59:45;32.0;;;30.0;;
22673;SDS011;11504;43.334;21.918;2022-10-31T02:04:38;34.0;;;32.0;;
22673;SDS011;11504;43.334;21.918;2022-10-31T02:09:18;34.0;;;32.0;;
22673;SDS011;11504;43.334;21.918;2022-10-31T02:14:00;36.0;;;35.0;;
22673;SDS011;11504;43.334;21.918;2022-10-31T02:18:40;36.0;;;35.0;;
22673;SDS011;11504;43.334;21.918;2022-10-31T02:23:20;36.0;;;35.0;;
22673;SDS011;11504;43.334;21.918;2022-10-31T02:29:38;36.0;;;35.0;;
22673;SDS011;11504;43.334;21.918;2022-10-31T02:35:01;37.0;;;35.0;;
22673;SDS011;11504;43.334;21.918;2022-10-31T02:40:26;37.0;;;35.0;;
22673;SDS011;11504;43.334;21.918;2022-10-31T02:45:32;40.0;;;38.0;;
22673;SDS011;11504;43.334;21.918;2022-10-31T02:50:37;40.0;;;38.0;;
22673;SDS011;11504;43.334;21.918;2022-10-31T02:56:04;43.0;;;41.0;;
22673;SDS011;11504;43.334;21.918;2022-10-31T03:01:00;43.0;;;41.0;;
22673;SDS011;11504;43.334;21.918;2022-10-31T03:06:50;46.0;;;44.0;;
22673;SDS011;11504;43.334;21.918;2022-10-31T03:12:10;48.0;;;46.0;;
22673;SDS011;11504;43.334;21.918;2022-10-31T03:17:20;48.0;;;46.0;;
22673;SDS011;11504;43.334;21.918;2022-10-31T03:22:33;44.0;;;42.0;;
22673;SDS011;11504;43.334;21.918;2022-10-31T03:27:21;44.0;;;42.0;;
22673;SDS011;11504;43.334;21.918;2022-10-31T03:32:12;39.0;;;37.0;;
22673;SDS011;11504;43.334;21.918;2022-10-31T03:37:04;39.0;;;37.0;;
22673;SDS011;11504;43.334;21.918;2022-10-31T03:41:54;39.0;;;37.0;;
22673;SDS011;11504;43.334;21.918;2022-10-31T03:46:51;36.0;;;34.0;;
22673;SDS011;11504;43.334;21.918;2022-10-31T03:51:30;36.0;;;34.0;;
22673;SDS011;11504;43.334;21.918;2022-10-31T03:56:47;34.0;;;32.0;;
22673;SDS011;11504;43.334;21.918;2022-10-31T04:01:55;34.0;;;32.0;;
22673;SDS011;11504;43.334;21.918;2022-10-31T04:06:54;33.0;;;32.0;;
22673;SDS011;11504;43.334;21.918;2022-10-31T04:11:46;33.0;;;32.0;;
22673;SDS011;11504;43.334;21.918;2022-10-31T04:16:42;32.0;;;31.0;;
22673;SDS011;11504;43.334;21.918;2022-10-31T04:21:26;32.0;;;31.0;;
22673;SDS011;11504;43.334;21.918;2022-10-31T04:26:07;35.0;;;34.0;;
22673;SDS011;11504;43.334;21.918;2022-10-31T04:30:49;35.0;;;34.0;;
22673;SDS011;11504;43.334;21.918;2022-10-31T04:35:27;38.0;;;36.0;;
22673;SDS011;11504;43.334;21.918;2022-10-31T04:40:04;38.0;;;36.0;;
22673;SDS011;11504;43.334;21.918;2022-10-31T04:44:46;37.0;;;35.0;;
22673;SDS011;11504;43.334;21.918;2022-10-31T04:49:22;37.0;;;35.0;;
22673;SDS011;11504;43.334;21.918;2022-10-31T04:53:59;36.0;;;34.0;;
22673;SDS011;11504;43.334;21.918;2022-10-31T04:58:35;36.0;;;34.0;;
22673;SDS011;11504;43.334;21.918;2022-10-31T05:03:12;36.0;;;34.0;;
22673;SDS011;11504;43.334;21.918;2022-10-31T05:07:49;36.0;;;34.0;;
22673;SDS011;11504;43.334;21.918;2022-10-31T05:12:29;35.0;;;33.0;;
22673;SDS011;11504;43.334;21.918;2022-10-31T05:17:05;35.0;;;33.0;;
22673;SDS011;11504;43.334;21.918;2022-10-31T05:21:42;35.0;;;33.0;;
22673;SDS011;11504;43.334;21.918;2022-10-31T05:26:18;34.0;;;32.0;;
22673;SDS011;11504;43.334;21.918;2022-10-31T05:30:55;34.0;;;32.0;;
22673;SDS011;11504;43.334;21.918;2022-10-31T05:35:32;33.0;;;32.0;;
22673;SDS011;11504;43.334;21.918;2022-10-31T05:40:10;33.0;;;32.0;;
22673;SDS011;11504;43.334;21.918;2022-10-31T05:44:57;35.0;;;34.0;;
22673;SDS011;11504;43.334;21.918;2022-10-31T05:49:35;35.0;;;34.0;;
22673;SDS011;11504;43.334;21.918;2022-10-31T05:54:11;37.0;;;36.0;;
22673;SDS011;11504;43.334;21.918;2022-10-31T05:58:48;37.0;;;36.0;;
22673;SDS011;11504;43.334;21.918;2022-10-31T06:03:25;46.0;;;44.0;;
22673;SDS011;11504;43.334;21.918;2022-10-31T06:08:01;46.0;;;44.0;;
22673;SDS011;11504;43.334;21.918;2022-10-31T06:12:38;54.0;;;51.0;;
22673;SDS011;11504;43.334;21.918;2022-10-31T06:17:15;54.0;;;51.0;;
22673;SDS011;11504;43.334;21.918;2022-10-31T06:21:52;54.0;;;51.0;;
22673;SDS011;11504;43.334;21.918;2022-10-31T06:26:28;50.0;;;48.0;;
22673;SDS011;11504;43.334;21.918;2022-10-31T06:31:05;50.0;;;48.0;;
22673;SDS011;11504;43.334;21.918;2022-10-31T06:35:44;47.0;;;45.0;;
22673;SDS011;11504;43.334;21.918;2022-10-31T06:40:23;47.0;;;45.0;;
22673;SDS011;11504;43.334;21.918;2022-10-31T06:45:00;47.0;;;45.0;;
22673;SDS011;11504;43.334;21.918;2022-10-31T06:49:38;47.0;;;45.0;;
22673;SDS011;11504;43.334;21.918;2022-10-31T06:54:20;47.0;;;45.0;;
22673;SDS011;11504;43.334;21.918;2022-10-31T06:58:57;47.0;;;45.0;;
22673;SDS011;11504;43.334;21.918;2022-10-31T07:03:34;46.0;;;44.0;;
22673;SDS011;11504;43.334;21.918;2022-10-31T07:08:12;46.0;;;44.0;;
22673;SDS011;11504;43.334;21.918;2022-10-31T07:12:53;45.0;;;43.0;;
22673;SDS011;11504;43.334;21.918;2022-10-31T07:17:35;45.0;;;43.0;;
22673;SDS011;11504;43.334;21.918;2022-10-31T07:22:12;45.0;;;43.0;;
22673;SDS011;11504;43.334;21.918;2022-10-31T07:26:48;46.0;;;44.0;;
22673;SDS011;11504;43.334;21.918;2022-10-31T07:31:25;46.0;;;44.0;;
22673;SDS011;11504;43.334;21.918;2022-10-31T07:36:02;48.0;;;46.0;;
22673;SDS011;11504;43.334;21.918;2022-10-31T07:40:41;48.0;;;46.0;;
22673;SDS011;11504;43.334;21.918;2022-10-31T07:45:20;46.0;;;44.0;;
22673;SDS011;11504;43.334;21.918;2022-10-31T07:49:56;46.0;;;44.0;;
22673;SDS011;11504;43.334;21.918;2022-10-31T07:54:33;44.0;;;42.0;;
22673;SDS011;11504;43.334;21.918;2022-10-31T07:59:10;44.0;;;42.0;;
22673;SDS011;11504;43.334;21.918;2022-10-31T08:03:46;44.0;;;42.0;;
22673;SDS011;11504;43.334;21.918;2022-10-31T08:08:23;44.0;;;42.0;;
22673;SDS011;11504;43.334;21.918;2022-10-31T08:13:00;45.0;;;43.0;;
22673;SDS011;11504;43.334;21.918;2022-10-31T08:17:47;45.0;;;43.0;;
22673;SDS011;11504;43.334;21.918;2022-10-31T08:22:24;46.0;;;44.0;;
22673;SDS011;11504;43.334;21.918;2022-10-31T08:27:01;46.0;;;44.0;;
22673;SDS011;11504;43.334;21.918;2022-10-31T08:31:38;46.0;;;44.0;;
22673;SDS011;11504;43.334;21.918;2022-10-31T08:36:15;48.0;;;46.0;;
22673;SDS011;11504;43.334;21.918;2022-10-31T08:40:52;48.0;;;46.0;;
22673;SDS011;11504;43.334;21.918;2022-10-31T08:45:29;48.0;;;46.0;;
22673;SDS011;11504;43.334;21.918;2022-10-31T08:50:10;48.0;;;46.0;;
22673;SDS011;11504;43.334;21.918;2022-10-31T08:54:46;48.0;;;45.0;;
22673;SDS011;11504;43.334;21.918;2022-10-31T08:59:28;48.0;;;45.0;;
22673;SDS011;11504;43.334;21.918;2022-10-31T09:04:04;46.0;;;44.0;;
22673;SDS011;11504;43.334;21.918;2022-10-31T09:08:41;46.0;;;44.0;;
22673;SDS011;11504;43.334;21.918;2022-10-31T09:13:18;44.0;;;42.0;;
22673;SDS011;11504;43.334;21.918;2022-10-31T09:17:58;44.0;;;42.0;;
22673;SDS011;11504;43.334;21.918;2022-10-31T09:22:35;44.0;;;42.0;;
22673;SDS011;11504;43.334;21.918;2022-10-31T09:27:12;44.0;;;42.0;;
22673;SDS011;11504;43.334;21.918;2022-10-31T09:31:49;44.0;;;42.0;;
22673;SDS011;11504;43.334;21.918;2022-10-31T09:36:26;43.0;;;41.0;;
22673;SDS011;11504;43.334;21.918;2022-10-31T09:41:05;43.0;;;41.0;;
22673;SDS011;11504;43.334;21.918;2022-10-31T09:46:31;42.0;;;40.0;;
22673;SDS011;11504;43.334;21.918;2022-10-31T09:51:59;42.0;;;40.0;;
22673;SDS011;11504;43.334;21.918;2022-10-31T09:57:09;42.0;;;40.0;;
22673;SDS011;11504;43.334;21.918;2022-10-31T10:02:10;42.0;;;40.0;;
22673;SDS011;11504;43.334;21.918;2022-10-31T10:07:16;42.0;;;40.0;;
22673;SDS011;11504;43.334;21.918;2022-10-31T10:12:33;42.0;;;40.0;;
22673;SDS011;11504;43.334;21.918;2022-10-31T10:18:19;42.0;;;40.0;;
22673;SDS011;11504;43.334;21.918;2022-10-31T10:23:49;40.0;;;38.0;;
22673;SDS011;11504;43.334;21.918;2022-10-31T10:29:18;40.0;;;38.0;;
22673;SDS011;11504;43.334;21.918;2022-10-31T10:34:26;39.0;;;37.0;;
22673;SDS011;11504;43.334;21.918;2022-10-31T10:39:25;39.0;;;37.0;;
22673;SDS011;11504;43.334;21.918;2022-10-31T10:44:23;36.0;;;35.0;;
22673;SDS011;11504;43.334;21.918;2022-10-31T10:49:02;36.0;;;35.0;;
22673;SDS011;11504;43.334;21.918;2022-10-31T10:54:09;34.0;;;33.0;;
22673;SDS011;11504;43.334;21.918;2022-10-31T10:59:32;34.0;;;33.0;;
22673;SDS011;11504;43.334;21.918;2022-10-31T11:04:19;32.0;;;31.0;;
22673;SDS011;11504;43.334;21.918;2022-10-31T11:09:11;32.0;;;31.0;;
22673;SDS011;11504;43.334;21.918;2022-10-31T11:13:55;31.0;;;29.0;;
22673;SDS011;11504;43.334;21.918;2022-10-31T11:18:51;31.0;;;29.0;;
22673;SDS011;11504;43.334;21.918;2022-10-31T11:24:01;30.0;;;28.0;;
22673;SDS011;11504;43.334;21.918;2022-10-31T11:28:56;30.0;;;28.0;;
22673;SDS011;11504;43.334;21.918;2022-10-31T11:33:36;29.0;;;27.0;;
22673;SDS011;11504;43.334;21.918;2022-10-31T11:38:39;29.0;;;27.0;;
22673;SDS011;11504;43.334;21.918;2022-10-31T11:43:20;30.0;;;28.0;;
22673;SDS011;11504;43.334;21.918;2022-10-31T11:48:00;30.0;;;28.0;;
22673;SDS011;11504;43.334;21.918;2022-10-31T11:52:57;30.0;;;29.0;;
22673;SDS011;11504;43.334;21.918;2022-10-31T11:57:42;30.0;;;29.0;;
22673;SDS011;11504;43.334;21.918;2022-10-31T12:02:29;30.0;;;28.0;;
22673;SDS011;11504;43.334;21.918;2022-10-31T12:07:06;30.0;;;28.0;;
22673;SDS011;11504;43.334;21.918;2022-10-31T12:11:46;30.0;;;28.0;;
22673;SDS011;11504;43.334;21.918;2022-10-31T12:17:20;30.0;;;28.0;;
22673;SDS011;11504;43.334;21.918;2022-10-31T12:22:29;30.0;;;28.0;;
22673;SDS011;11504;43.334;21.918;2022-10-31T12:27:50;30.0;;;28.0;;
22673;SDS011;11504;43.334;21.918;2022-10-31T12:33:51;30.0;;;28.0;;
22673;SDS011;11504;43.334;21.918;2022-10-31T12:39:52;30.0;;;28.0;;
22673;SDS011;11504;43.334;21.918;2022-10-31T12:45:38;28.0;;;26.0;;
22673;SDS011;11504;43.334;21.918;2022-10-31T12:50:37;28.0;;;26.0;;
22673;SDS011;11504;43.334;21.918;2022-10-31T12:55:57;25.0;;;24.0;;
22673;SDS011;11504;43.334;21.918;2022-10-31T13:01:26;25.0;;;24.0;;
22673;SDS011;11504;43.334;21.918;2022-10-31T13:06:27;24.0;;;24.0;;
22673;SDS011;11504;43.334;21.918;2022-10-31T13:11:30;24.0;;;24.0;;
22673;SDS011;11504;43.334;21.918;2022-10-31T13:16:33;24.0;;;23.0;;
22673;SDS011;11504;43.334;21.918;2022-10-31T13:21:24;24.0;;;23.0;;
22673;SDS011;11504;43.334;21.918;2022-10-31T13:26:28;22.0;;;22.0;;
22673;SDS011;11504;43.334;21.918;2022-10-31T13:31:24;22.0;;;22.0;;
22673;SDS011;11504;43.334;21.918;2022-10-31T13:36:07;21.0;;;20.0;;
22673;SDS011;11504;43.334;21.918;2022-10-31T13:41:21;21.0;;;20.0;;
22673;SDS011;11504;43.334;21.918;2022-10-31T13:46:35;18.0;;;18.0;;
22673;SDS011;11504;43.334;21.918;2022-10-31T13:51:24;18.0;;;18.0;;
22673;SDS011;11504;43.334;21.918;2022-10-31T13:56:13;16.0;;;15.0;;
22673;SDS011;11504;43.334;21.918;2022-10-31T14:01:12;16.0;;;15.0;;
22673;SDS011;11504;43.334;21.918;2022-10-31T14:05:57;16.0;;;15.0;;
22673;SDS011;11504;43.334;21.918;2022-10-31T14:10:36;16.0;;;15.0;;
22673;SDS011;11504;43.334;21.918;2022-10-31T14:15:30;16.0;;;15.0;;
22673;SDS011;11504;43.334;21.918;2022-10-31T14:20:32;16.0;;;15.0;;
22673;SDS011;11504;43.334;21.918;2022-10-31T14:25:25;16.0;;;16.0;;
22673;SDS011;11504;43.334;21.918;2022-10-31T14:30:14;16.0;;;16.0;;
22673;SDS011;11504;43.334;21.918;2022-10-31T14:35:01;17.0;;;16.0;;
22673;SDS011;11504;43.334;21.918;2022-10-31T14:39:55;17.0;;;16.0;;
22673;SDS011;11504;43.334;21.918;2022-10-31T14:45:29;18.0;;;16.0;;
22673;SDS011;11504;43.334;21.918;2022-10-31T14:50:48;18.0;;;16.0;;
22673;SDS011;11504;43.334;21.918;2022-10-31T14:55:34;18.0;;;17.0;;
22673;SDS011;11504;43.334;21.918;2022-10-31T15:00:29;18.0;;;17.0;;
22673;SDS011;11504;43.334;21.918;2022-10-31T15:05:11;20.0;;;18.0;;
22673;SDS011;11504;43.334;21.918;2022-10-31T15:09:55;20.0;;;18.0;;
22673;SDS011;11504;43.334;21.918;2022-10-31T15:14:53;21.0;;;20.0;;
22673;SDS011;11504;43.334;21.918;2022-10-31T15:19:38;21.0;;;20.0;;
22673;SDS011;11504;43.334;21.918;2022-10-31T15:24:19;22.0;;;20.0;;
22673;SDS011;11504;43.334;21.918;2022-10-31T15:29:12;22.0;;;20.0;;
22673;SDS011;11504;43.334;21.918;2022-10-31T15:33:58;22.0;;;21.0;;
22673;SDS011;11504;43.334;21.918;2022-10-31T15:39:01;22.0;;;21.0;;
22673;SDS011;11504;43.334;21.918;2022-10-31T15:43:38;24.0;;;23.0;;
22673;SDS011;11504;43.334;21.918;2022-10-31T15:48:22;24.0;;;23.0;;
22673;SDS011;11504;43.334;21.918;2022-10-31T15:53:00;27.0;;;25.0;;
22673;SDS011;11504;43.334;21.918;2022-10-31T15:57:56;27.0;;;25.0;;
22673;SDS011;11504;43.334;21.918;2022-10-31T16:03:00;28.0;;;26.0;;
22673;SDS011;11504;43.334;21.918;2022-10-31T16:08:00;28.0;;;26.0;;
22673;SDS011;11504;43.334;21.918;2022-10-31T16:12:37;28.0;;;26.0;;
22673;SDS011;11504;43.334;21.918;2022-10-31T16:17:23;30.0;;;28.0;;
22673;SDS011;11504;43.334;21.918;2022-10-31T16:22:05;30.0;;;28.0;;
22673;SDS011;11504;43.334;21.918;2022-10-31T16:27:04;42.0;;;40.0;;
22673;SDS011;11504;43.334;21.918;2022-10-31T16:32:22;42.0;;;40.0;;
22673;SDS011;11504;43.334;21.918;2022-10-31T16:37:26;55.0;;;52.0;;
22673;SDS011;11504;43.334;21.918;2022-10-31T16:42:03;55.0;;;52.0;;
22673;SDS011;11504;43.334;21.918;2022-10-31T16:46:44;54.0;;;51.0;;
22673;SDS011;11504;43.334;21.918;2022-10-31T16:51:21;54.0;;;51.0;;
22673;SDS011;11504;43.334;21.918;2022-10-31T16:55:58;53.0;;;50.0;;
22673;SDS011;11504;43.334;21.918;2022-10-31T17:00:39;53.0;;;50.0;;
22673;SDS011;11504;43.334;21.918;2022-10-31T17:05:17;63.0;;;60.0;;
22673;SDS011;11504;43.334;21.918;2022-10-31T17:09:59;63.0;;;60.0;;
22673;SDS011;11504;43.334;21.918;2022-10-31T17:14:35;73.0;;;70.0;;
22673;SDS011;11504;43.334;21.918;2022-10-31T17:19:13;73.0;;;70.0;;
22673;SDS011;11504;43.334;21.918;2022-10-31T17:23:51;73.0;;;70.0;;
22673;SDS011;11504;43.334;21.918;2022-10-31T17:28:29;73.0;;;70.0;;
22673;SDS011;11504;43.334;21.918;2022-10-31T17:33:07;73.0;;;69.0;;
22673;SDS011;11504;43.334;21.918;2022-10-31T17:37:51;73.0;;;69.0;;
22673;SDS011;11504;43.334;21.918;2022-10-31T17:42:28;73.0;;;69.0;;
22673;SDS011;11504;43.334;21.918;2022-10-31T17:47:05;72.0;;;68.0;;
22673;SDS011;11504;43.334;21.918;2022-10-31T17:51:42;72.0;;;68.0;;
22673;SDS011;11504;43.334;21.918;2022-10-31T17:56:19;72.0;;;68.0;;
22673;SDS011;11504;43.334;21.918;2022-10-31T18:00:56;72.0;;;68.0;;
22673;SDS011;11504;43.334;21.918;2022-10-31T18:05:34;72.0;;;68.0;;
22673;SDS011;11504;43.334;21.918;2022-10-31T18:10:11;72.0;;;68.0;;
22673;SDS011;11504;43.334;21.918;2022-10-31T18:14:48;71.0;;;68.0;;
22673;SDS011;11504;43.334;21.918;2022-10-31T18:19:27;71.0;;;68.0;;
22673;SDS011;11504;43.334;21.918;2022-10-31T18:24:04;62.0;;;59.0;;
22673;SDS011;11504;43.334;21.918;2022-10-31T18:28:44;62.0;;;59.0;;
22673;SDS011;11504;43.334;21.918;2022-10-31T18:33:21;53.0;;;50.0;;
22673;SDS011;11504;43.334;21.918;2022-10-31T18:37:58;53.0;;;50.0;;
22673;SDS011;11504;43.334;21.918;2022-10-31T18:42:34;53.0;;;50.0;;
22673;SDS011;11504;43.334;21.918;2022-10-31T18:47:11;43.0;;;41.0;;
22673;SDS011;11504;43.334;21.918;2022-10-31T18:51:48;43.0;;;41.0;;
22673;SDS011;11504;43.334;21.918;2022-10-31T18:56:26;33.0;;;32.0;;
22673;SDS011;11504;43.334;21.918;2022-10-31T19:01:06;33.0;;;32.0;;
22673;SDS011;11504;43.334;21.918;2022-10-31T19:05:52;40.0;;;38.0;;
22673;SDS011;11504;43.334;21.918;2022-10-31T19:10:32;40.0;;;38.0;;
22673;SDS011;11504;43.334;21.918;2022-10-31T19:15:13;47.0;;;45.0;;
22673;SDS011;11504;43.334;21.918;2022-10-31T19:19:51;47.0;;;45.0;;
22673;SDS011;11504;43.334;21.918;2022-10-31T19:24:28;43.0;;;41.0;;
22673;SDS011;11504;43.334;21.918;2022-10-31T19:29:05;43.0;;;41.0;;
22673;SDS011;11504;43.334;21.918;2022-10-31T19:33:41;39.0;;;37.0;;
22673;SDS011;11504;43.334;21.918;2022-10-31T19:38:18;39.0;;;37.0;;
22673;SDS011;11504;43.334;21.918;2022-10-31T19:42:54;48.0;;;46.0;;
22673;SDS011;11504;43.334;21.918;2022-10-31T19:47:33;48.0;;;46.0;;
22673;SDS011;11504;43.334;21.918;2022-10-31T19:52:10;48.0;;;46.0;;
22673;SDS011;11504;43.334;21.918;2022-10-31T19:56:46;57.0;;;54.0;;
22673;SDS011;11504;43.334;21.918;2022-10-31T20:01:24;57.0;;;54.0;;
22673;SDS011;11504;43.334;21.918;2022-10-31T20:06:01;52.0;;;48.0;;
22673;SDS011;11504;43.334;21.918;2022-10-31T20:10:54;52.0;;;48.0;;
22673;SDS011;11504;43.334;21.918;2022-10-31T20:15:38;46.0;;;43.0;;
22673;SDS011;11504;43.334;21.918;2022-10-31T20:20:15;46.0;;;43.0;;
22673;SDS011;11504;43.334;21.918;2022-10-31T20:24:52;46.0;;;44.0;;
22673;SDS011;11504;43.334;21.918;2022-10-31T20:29:29;46.0;;;44.0;;
22673;SDS011;11504;43.334;21.918;2022-10-31T20:34:06;47.0;;;44.0;;
22673;SDS011;11504;43.334;21.918;2022-10-31T20:38:43;47.0;;;44.0;;
22673;SDS011;11504;43.334;21.918;2022-10-31T20:43:22;48.0;;;46.0;;
22673;SDS011;11504;43.334;21.918;2022-10-31T20:47:58;48.0;;;46.0;;
22673;SDS011;11504;43.334;21.918;2022-10-31T20:52:35;48.0;;;46.0;;
22673;SDS011;11504;43.334;21.918;2022-10-31T20:57:12;50.0;;;48.0;;
22673;SDS011;11504;43.334;21.918;2022-10-31T21:01:48;50.0;;;48.0;;
22673;SDS011;11504;43.334;21.918;2022-10-31T21:06:25;49.0;;;47.0;;
22673;SDS011;11504;43.334;21.918;2022-10-31T21:11:06;49.0;;;47.0;;
22673;SDS011;11504;43.334;21.918;2022-10-31T21:15:57;48.0;;;46.0;;
22673;SDS011;11504;43.334;21.918;2022-10-31T21:20:40;48.0;;;46.0;;
22673;SDS011;11504;43.334;21.918;2022-10-31T21:25:19;42.0;;;40.0;;
22673;SDS011;11504;43.334;21.918;2022-10-31T21:29:57;42.0;;;40.0;;
22673;SDS011;11504;43.334;21.918;2022-10-31T21:34:34;36.0;;;34.0;;
22673;SDS011;11504;43.334;21.918;2022-10-31T21:39:10;36.0;;;34.0;;
22673;SDS011;11504;43.334;21.918;2022-10-31T21:43:49;35.0;;;33.0;;
22673;SDS011;11504;43.334;21.918;2022-10-31T21:48:29;35.0;;;33.0;;
22673;SDS011;11504;43.334;21.918;2022-10-31T21:53:07;34.0;;;32.0;;
22673;SDS011;11504;43.334;21.918;2022-10-31T21:57:44;34.0;;;32.0;;
22673;SDS011;11504;43.334;21.918;2022-10-31T22:02:20;34.0;;;32.0;;
22673;SDS011;11504;43.334;21.918;2022-10-31T22:06:57;34.0;;;32.0;;
22673;SDS011;11504;43.334;21.918;2022-10-31T22:11:34;34.0;;;32.0;;
22673;SDS011;11504;43.334;21.918;2022-10-31T22:16:12;34.0;;;32.0;;
22673;SDS011;11504;43.334;21.918;2022-10-31T22:20:59;34.0;;;32.0;;
22673;SDS011;11504;43.334;21.918;2022-10-31T22:25:41;36.0;;;34.0;;
22673;SDS011;11504;43.334;21.918;2022-10-31T22:30:18;36.0;;;34.0;;
22673;SDS011;11504;43.334;21.918;2022-10-31T22:34:54;37.0;;;35.0;;
22673;SDS011;11504;43.334;21.918;2022-10-31T22:39:31;37.0;;;35.0;;
22673;SDS011;11504;43.334;21.918;2022-10-31T22:44:08;37.0;;;35.0;;
22673;SDS011;11504;43.334;21.918;2022-10-31T22:48:46;37.0;;;35.0;;
22673;SDS011;11504;43.334;21.918;2022-10-31T22:53:36;37.0;;;35.0;;
22673;SDS011;11504;43.334;21.918;2022-10-31T22:58:18;37.0;;;35.0;;
22673;SDS011;11504;43.334;21.918;2022-10-31T23:02:55;37.0;;;35.0;;
22673;SDS011;11504;43.334;21.918;2022-10-31T23:07:32;38.0;;;36.0;;
22673;SDS011;11504;43.334;21.918;2022-10-31T23:12:09;38.0;;;36.0;;
22673;SDS011;11504;43.334;21.918;2022-10-31T23:16:46;40.0;;;38.0;;
22673;SDS011;11504;43.334;21.918;2022-10-31T23:21:31;40.0;;;38.0;;
22673;SDS011;11504;43.334;21.918;2022-10-31T23:26:14;36.0;;;34.0;;
22673;SDS011;11504;43.334;21.918;2022-10-31T23:30:50;36.0;;;34.0;;
22673;SDS011;11504;43.334;21.918;2022-10-31T23:35:27;33.0;;;31.0;;
22673;SDS011;11504;43.334;21.918;2022-10-31T23:40:04;33.0;;;31.0;;
22673;SDS011;11504;43.334;21.918;2022-10-31T23:44:44;32.0;;;31.0;;
22673;SDS011;11504;43.334;21.918;2022-10-31T23:49:23;32.0;;;31.0;;
22673;SDS011;11504;43.334;21.918;2022-10-31T23:54:00;32.0;;;31.0;;
22673;SDS011;11504;43.334;21.918;2022-10-31T23:58:37;32.0;;;31.0;;
